createdAt,value
2016-11-20T00:34:33.615Z,986.14
2016-11-20T00:35:43.959Z,986.12
2016-11-20T00:36:54.323Z,986.05
2016-11-20T00:38:04.684Z,986.03
2016-11-20T00:39:15.048Z,986.03
2016-11-20T00:40:25.409Z,986.04
2016-11-20T00:41:35.775Z,985.99
2016-11-20T00:42:46.132Z,985.99
2016-11-20T00:43:56.499Z,985.94
2016-11-20T00:45:06.864Z,985.96
2016-11-20T00:46:17.229Z,985.96
2016-11-20T00:47:27.594Z,985.89
2016-11-20T00:48:37.961Z,985.81
2016-11-20T00:49:48.323Z,985.84
2016-11-20T00:50:58.691Z,985.88
2016-11-20T00:51:49.194Z,985.85
2016-11-20T00:52:59.563Z,985.84
2016-11-20T00:54:09.930Z,985.85
2016-11-20T00:55:20.295Z,985.77
2016-11-20T00:56:30.659Z,985.79
2016-11-20T00:57:41.021Z,985.74
2016-11-20T00:58:51.386Z,985.73
2016-11-20T01:00:01.749Z,985.68
2016-11-20T01:01:12.119Z,985.68
2016-11-20T01:02:22.490Z,985.65
2016-11-20T01:33:43.315Z,985.63
2016-11-20T01:34:53.676Z,985.64
2016-11-20T01:36:04.037Z,985.65
2016-11-20T01:37:14.404Z,985.67
2016-11-20T01:38:24.766Z,985.72
2016-11-20T01:39:35.127Z,985.75
2016-11-20T01:40:45.495Z,985.75
2016-11-20T01:41:55.851Z,985.73
2016-11-20T01:43:06.217Z,985.71
2016-11-20T01:44:16.574Z,985.68
2016-11-20T01:45:26.949Z,985.69
2016-11-20T01:46:37.318Z,985.65
2016-11-20T01:47:47.682Z,985.6
2016-11-20T01:48:58.043Z,985.57
2016-11-20T01:50:08.409Z,985.51
2016-11-20T01:51:18.779Z,985.5
2016-11-20T01:52:29.152Z,985.48
2016-11-20T01:53:39.517Z,985.39
2016-11-20T01:54:49.889Z,985.38
2016-11-20T01:56:00.252Z,985.38
2016-11-20T01:57:10.617Z,985.29
2016-11-20T01:58:20.992Z,985.25
2016-11-20T01:59:31.360Z,985.27
2016-11-20T02:00:41.732Z,985.25
2016-11-20T02:01:52.105Z,985.24
2016-11-20T02:33:53.521Z,984.11
2016-11-20T02:35:03.881Z,984.1
2016-11-20T02:36:14.239Z,984.14
2016-11-20T03:33:25.651Z,983.44
2016-11-20T03:34:36.006Z,983.41
2016-11-20T03:35:46.363Z,983.39
2016-11-20T03:36:56.727Z,983.38
2016-11-20T03:38:07.094Z,983.3
2016-11-20T03:39:17.455Z,983.27
2016-11-20T03:40:27.815Z,983.3
2016-11-20T03:41:38.178Z,983.29
2016-11-20T03:42:48.540Z,983.27
2016-11-20T03:43:58.902Z,983.32
2016-11-20T03:45:09.264Z,983.24
2016-11-20T03:46:19.627Z,983.23
2016-11-20T03:47:29.987Z,983.19
2016-11-20T03:48:40.347Z,983.26
2016-11-20T03:49:50.713Z,983.16
2016-11-20T03:51:01.077Z,983.17
2016-11-20T03:52:11.441Z,983.15
2016-11-20T04:33:24.799Z,982.62
2016-11-20T04:34:35.148Z,982.7
2016-11-20T04:35:45.534Z,982.64
2016-11-20T04:36:55.867Z,982.42
2016-11-20T04:38:06.232Z,982.37
2016-11-20T04:39:16.590Z,982.49
2016-11-20T04:40:26.957Z,982.54
2016-11-20T04:41:37.324Z,982.41
2016-11-20T04:42:47.686Z,982.26
2016-11-20T04:43:58.047Z,982.32
2016-11-20T04:45:08.413Z,982.29
2016-11-20T04:46:18.777Z,982.32
2016-11-20T04:47:29.143Z,982.28
2016-11-20T04:48:39.508Z,982.3
2016-11-20T04:49:49.874Z,982.22
2016-11-20T04:51:00.242Z,982.26
2016-11-20T04:52:10.607Z,982.18
2016-11-20T04:53:20.972Z,982.23
2016-11-20T04:54:31.338Z,982.24
2016-11-20T04:55:41.702Z,982.15
2016-11-20T04:56:52.069Z,982.14
2016-11-20T04:58:02.434Z,982.12
2016-11-20T04:59:12.801Z,982.3
2016-11-20T05:00:23.168Z,982.28
2016-11-20T05:01:33.532Z,982.26
2016-11-20T05:02:43.901Z,982.17
2016-11-20T05:03:54.271Z,982.21
2016-11-20T05:32:39.458Z,981.79
2016-11-20T06:33:57.217Z,981.21
2016-11-20T06:35:07.573Z,981.2
2016-11-20T06:36:17.937Z,981.1
2016-11-20T06:37:28.298Z,981.19
2016-11-20T06:38:38.659Z,981.14
2016-11-20T06:39:49.021Z,981.11
2016-11-20T06:40:59.379Z,981.24
2016-11-20T06:42:09.747Z,981.09
2016-11-20T06:43:20.107Z,981.15
2016-11-20T06:44:30.502Z,981.08
2016-11-20T06:45:40.834Z,981.05
2016-11-20T06:46:51.197Z,981.04
2016-11-20T06:48:01.558Z,981.18
2016-11-20T06:49:11.923Z,981.25
2016-11-20T06:50:22.290Z,981.28
2016-11-20T06:51:32.655Z,981.34
2016-11-20T06:52:43.022Z,981.17
2016-11-20T06:53:53.391Z,981.19
2016-11-20T06:55:03.756Z,981.16
2016-11-20T06:56:14.124Z,981.15
2016-11-20T06:57:24.486Z,981.03
2016-11-20T06:58:34.853Z,980.92
2016-11-20T06:59:45.232Z,980.93
2016-11-20T07:00:55.603Z,980.99
2016-11-20T07:02:05.967Z,980.96
2016-11-20T07:03:16.332Z,981.03
2016-11-20T07:33:23.813Z,980.82
2016-11-20T07:34:34.169Z,980.72
2016-11-20T07:35:44.535Z,980.81
2016-11-20T07:36:54.890Z,980.81
2016-11-20T07:38:05.253Z,980.86
2016-11-20T07:39:15.612Z,980.89
2016-11-20T07:40:25.975Z,980.85
2016-11-20T07:41:36.335Z,980.81
2016-11-20T07:42:46.701Z,980.84
2016-11-20T07:43:57.068Z,980.76
2016-11-20T07:45:07.432Z,980.75
2016-11-20T07:46:17.800Z,980.79
2016-11-20T07:47:28.163Z,980.87
2016-11-20T07:48:38.530Z,980.69
2016-11-20T07:49:48.901Z,980.58
2016-11-20T07:50:59.273Z,980.61
2016-11-20T07:52:09.636Z,980.59
2016-11-20T07:53:20.000Z,980.67
2016-11-20T07:54:30.368Z,980.63
2016-11-20T07:55:40.735Z,980.59
2016-11-20T07:56:51.100Z,980.47
2016-11-20T07:58:01.467Z,980.39
2016-11-20T07:59:11.832Z,980.52
2016-11-20T08:00:22.197Z,980.43
2016-11-20T08:34:44.980Z,980.33
2016-11-20T08:35:55.347Z,980.33
2016-11-20T08:37:05.708Z,980.32
2016-11-20T08:38:16.066Z,980.28
2016-11-20T08:39:26.425Z,980.26
2016-11-20T08:40:36.787Z,980.22
2016-11-20T08:41:47.149Z,980.22
2016-11-20T08:42:57.516Z,980.24
2016-11-20T08:44:07.880Z,980.16
2016-11-20T08:45:18.241Z,980.14
2016-11-20T08:46:28.606Z,980.18
2016-11-20T08:47:38.969Z,980.06
2016-11-20T08:48:49.336Z,980.06
2016-11-20T08:49:59.702Z,980.04
2016-11-20T08:51:10.070Z,980.06
2016-11-20T08:52:20.431Z,980.02
2016-11-20T08:53:30.798Z,980.09
2016-11-20T08:54:41.162Z,980.17
2016-11-20T08:55:51.528Z,980.22
2016-11-20T08:57:01.897Z,980.26
2016-11-20T08:58:12.265Z,980.21
2016-11-20T08:59:22.631Z,980.2
2016-11-20T09:00:32.997Z,980.17
2016-11-20T09:36:27.061Z,979.62
2016-11-20T09:37:37.415Z,979.71
2016-11-20T09:38:47.778Z,979.73
2016-11-20T09:39:58.136Z,979.74
2016-11-20T09:41:08.496Z,979.78
2016-11-20T09:42:18.856Z,979.76
2016-11-20T09:43:29.216Z,979.86
2016-11-20T09:44:39.577Z,979.76
2016-11-20T09:45:49.939Z,979.46
2016-11-20T09:47:00.301Z,979.51
2016-11-20T09:48:10.663Z,979.37
2016-11-20T09:49:21.014Z,979.37
2016-11-20T09:50:31.387Z,979.53
2016-11-20T09:51:41.754Z,979.54
2016-11-20T09:52:52.119Z,979.56
2016-11-20T09:54:02.482Z,979.61
2016-11-20T09:55:12.850Z,979.63
2016-11-20T09:56:23.215Z,979.64
2016-11-20T09:57:33.583Z,979.68
2016-11-20T09:58:43.950Z,979.64
2016-11-20T09:59:54.314Z,979.57
2016-11-20T10:01:04.680Z,979.55
2016-11-20T10:02:15.045Z,979.49
2016-11-20T10:03:25.481Z,979.56
2016-11-20T10:04:35.826Z,979.62
2016-11-20T10:36:22.518Z,979.41
2016-11-20T10:37:32.872Z,979.44
2016-11-20T10:38:43.231Z,979.39
2016-11-20T10:39:53.585Z,979.44
2016-11-20T10:41:03.943Z,979.41
2016-11-20T10:42:14.306Z,979.46
2016-11-20T10:43:04.767Z,979.47
2016-11-20T10:44:15.128Z,979.45
2016-11-20T10:45:25.491Z,979.44
2016-11-20T10:46:35.854Z,979.44
2016-11-20T10:47:46.215Z,979.51
2016-11-20T10:48:56.581Z,979.52
2016-11-20T10:50:06.947Z,979.56
2016-11-20T10:51:17.312Z,979.56
2016-11-20T10:52:27.676Z,979.63
2016-11-20T10:53:38.043Z,979.66
2016-11-20T10:54:48.409Z,979.52
2016-11-20T10:55:58.777Z,979.59
2016-11-20T10:57:09.142Z,979.6
2016-11-20T10:58:19.508Z,979.52
2016-11-20T10:59:29.876Z,979.58
2016-11-20T11:00:40.244Z,979.48
2016-11-20T11:01:50.611Z,979.63
2016-11-20T11:03:00.979Z,979.56
2016-11-20T11:04:11.349Z,979.53
2016-11-20T11:35:24.269Z,979.43
2016-11-20T11:36:34.627Z,979.42
2016-11-20T11:37:44.984Z,979.4
2016-11-20T11:38:35.443Z,979.45
2016-11-20T11:39:45.804Z,979.34
2016-11-20T11:40:56.165Z,979.34
2016-11-20T11:42:06.525Z,979.28
2016-11-20T11:43:16.887Z,979.32
2016-11-20T11:44:07.346Z,979.24
2016-11-20T11:45:17.708Z,979.28
2016-11-20T11:46:28.071Z,979.26
2016-11-20T11:47:38.435Z,979.27
2016-11-20T11:48:48.804Z,979.34
2016-11-20T11:49:59.169Z,979.35
2016-11-20T11:51:09.536Z,979.36
2016-11-20T11:52:19.902Z,979.2
2016-11-20T11:53:30.268Z,979.32
2016-11-20T11:54:40.635Z,979.24
2016-11-20T11:55:51.002Z,979.24
2016-11-20T11:57:01.369Z,979.24
2016-11-20T12:35:48.886Z,979.34
2016-11-20T12:36:59.247Z,979.37
2016-11-20T12:38:09.607Z,979.34
2016-11-20T12:39:19.969Z,979.34
2016-11-20T12:40:30.332Z,979.28
2016-11-20T12:41:40.688Z,979.36
2016-11-20T12:42:51.052Z,979.34
2016-11-20T12:44:01.411Z,979.34
2016-11-20T13:35:11.791Z,979.27
2016-11-20T13:36:22.158Z,979.24
2016-11-20T13:37:32.535Z,979.26
2016-11-20T13:38:42.898Z,979.28
2016-11-20T13:39:53.261Z,979.26
2016-11-20T14:34:03.672Z,979.79
2016-11-20T14:34:54.124Z,979.79
2016-11-20T14:36:04.472Z,979.8
2016-11-20T14:37:14.844Z,979.82
2016-11-20T14:38:25.195Z,979.81
2016-11-20T14:39:35.579Z,979.81
2016-11-20T15:34:43.391Z,980.53
2016-11-20T15:35:53.753Z,980.55
2016-11-20T15:37:04.112Z,980.6
2016-11-20T15:38:14.468Z,980.6
2016-11-20T15:39:24.831Z,980.62
2016-11-20T15:40:35.192Z,980.64
2016-11-20T15:41:45.552Z,980.61
2016-11-20T15:42:36.008Z,980.67
2016-11-20T15:43:46.377Z,980.71
2016-11-20T15:44:56.742Z,980.7
2016-11-20T15:46:07.110Z,980.69
2016-11-20T15:47:17.478Z,980.7
2016-11-20T15:48:27.838Z,980.74
2016-11-20T15:49:38.201Z,980.75
2016-11-20T15:50:48.560Z,980.73
2016-11-20T15:51:58.928Z,980.75
2016-11-20T15:52:49.397Z,980.78
2016-11-20T16:34:46.833Z,981.45
2016-11-20T16:35:57.200Z,981.49
2016-11-20T16:37:07.549Z,981.48
2016-11-20T16:38:17.904Z,981.53
2016-11-20T16:39:28.267Z,981.49
2016-11-20T16:40:38.633Z,981.39
2016-11-20T16:41:48.997Z,981.44
2016-11-20T16:42:59.355Z,981.44
2016-11-20T16:44:09.713Z,981.46
2016-11-20T16:45:20.075Z,981.36
2016-11-20T16:46:30.427Z,981.45
2016-11-20T16:47:40.807Z,981.5
2016-11-20T16:48:51.175Z,981.55
2016-11-20T16:50:01.542Z,981.56
2016-11-20T16:51:11.904Z,981.62
2016-11-20T16:52:22.255Z,981.61
2016-11-20T16:53:32.633Z,981.59
2016-11-20T16:54:43.007Z,981.61
2016-11-20T16:55:53.375Z,981.6
2016-11-20T16:57:03.743Z,981.63
2016-11-20T16:58:14.104Z,981.7
2016-11-20T17:34:31.011Z,981.67
2016-11-20T17:35:41.371Z,981.75
2016-11-20T17:36:51.733Z,981.73
2016-11-20T17:38:02.089Z,981.8
2016-11-20T18:35:11.273Z,982.3
2016-11-20T18:36:21.632Z,982.22
2016-11-20T18:37:31.991Z,982.27
2016-11-20T18:38:42.350Z,982.34
2016-11-20T18:39:52.715Z,982.28
2016-11-20T18:41:03.077Z,982.25
2016-11-20T18:42:13.437Z,982.32
2016-11-20T19:34:17.295Z,982.57
2016-11-20T19:35:27.639Z,982.59
2016-11-20T19:36:37.998Z,982.46
2016-11-20T19:37:48.363Z,982.52
2016-11-20T19:38:58.724Z,982.53
2016-11-20T19:40:09.093Z,982.52
2016-11-20T19:41:19.457Z,982.55
2016-11-20T19:42:29.821Z,982.56
2016-11-20T19:43:40.179Z,982.54
2016-11-20T19:44:50.546Z,982.53
2016-11-20T19:46:00.912Z,982.53
2016-11-20T19:47:11.278Z,982.55
2016-11-20T19:48:21.640Z,982.56
2016-11-20T19:49:32.001Z,982.51
2016-11-20T19:50:42.368Z,982.57
2016-11-20T20:33:34.351Z,982.88
2016-11-20T20:34:44.707Z,982.89
2016-11-20T20:35:55.063Z,982.88
2016-11-20T20:37:05.432Z,982.84
2016-11-20T21:34:28.186Z,983.16
2016-11-20T21:35:38.548Z,983.16
2016-11-20T21:36:48.905Z,983.15
2016-11-20T21:37:59.262Z,983.11
2016-11-20T21:39:09.629Z,983.09
2016-11-20T21:40:19.991Z,983.13
2016-11-20T21:41:30.350Z,983.1
2016-11-20T21:42:40.764Z,983.07
2016-11-20T21:43:51.124Z,983.09
2016-11-20T21:45:01.484Z,983.09
2016-11-20T21:46:11.844Z,983.1
2016-11-20T21:47:22.210Z,983.1
2016-11-20T21:48:32.576Z,983.09
2016-11-20T22:34:42.385Z,983.1
2016-11-20T22:35:52.748Z,983.09
2016-11-20T22:37:03.107Z,983.08
2016-11-20T22:38:13.462Z,983.07
2016-11-20T22:39:23.824Z,983.07
2016-11-20T22:40:34.183Z,983.02
2016-11-20T22:41:44.547Z,983.02
2016-11-20T22:42:54.911Z,983.04
2016-11-20T22:44:05.282Z,983.08
2016-11-20T23:35:29.171Z,982.81
2016-11-20T23:36:39.529Z,982.8
2016-11-20T23:37:49.892Z,982.85
2016-11-20T23:39:00.253Z,982.83
2016-11-20T23:40:10.616Z,982.85
2016-11-20T23:41:20.979Z,982.88
2016-11-20T23:42:31.345Z,982.95
2016-11-20T23:43:41.705Z,982.95
2016-11-20T23:44:52.066Z,982.97
2016-11-20T23:46:02.430Z,982.92
2016-11-20T23:47:12.789Z,982.91
2016-11-20T23:48:23.159Z,982.9
2016-11-20T23:49:33.524Z,982.98
2016-11-20T23:50:43.894Z,982.94
2016-11-20T23:51:54.259Z,982.93
2016-11-20T23:53:04.622Z,982.95
2016-11-20T23:54:14.990Z,982.91
2016-11-20T23:55:25.357Z,982.9
2016-11-20T23:56:35.723Z,982.96
2016-11-20T23:57:46.089Z,982.98
2016-11-20T23:58:56.459Z,982.98
